Time;durP1;ratioP1;P1;durP2;ratioP2;P2;SDS_P1;SDS_P2;PMS_P1;PMS_P2;Temp;Humidity;BMP_temperature;BMP_pressure;BME280_temperature;BME280_humidity;BME280_pressure;Samples;Min_cycle;Max_cycle;Signal;HPM_P1;HPM_P2
2023/04/11 00:02:40;;;;;;;6.43;1.08;;;;;;;12.33;87.73;100026.53;8287794;28;20531;-56
2023/04/11 00:06:40;;;;;;;8.27;1.30;;;;;;;12.35;87.50;100035.34;8284560;28;20258;-56
2023/04/11 00:10:41;;;;;;;7.90;1.23;;;;;;;12.44;87.14;100020.81;8286420;28;20037;-56
2023/04/11 00:14:44;;;;;;;8.40;1.60;;;;;;;12.46;87.00;100019.63;8281797;28;20045;-56
2023/04/11 00:18:44;;;;;;;6.97;1.23;;;;;;;12.48;87.82;100016.75;8291142;28;20045;-56
2023/04/11 00:22:45;;;;;;;10.70;1.50;;;;;;;12.42;88.55;99998.44;8290395;28;20562;-56
2023/04/11 00:26:45;;;;;;;8.93;1.63;;;;;;;12.39;89.34;100006.88;8291688;28;20114;-56
2023/04/11 00:30:46;;;;;;;14.63;1.98;;;;;;;12.30;89.76;100018.72;8291112;28;20056;-59
2023/04/11 00:34:47;;;;;;;9.48;1.45;;;;;;;12.21;90.73;100025.13;8291303;28;20038;-60
2023/04/11 00:38:47;;;;;;;8.98;1.50;;;;;;;12.30;89.83;100029.56;8291177;28;20050;-59
2023/04/11 00:42:47;;;;;;;13.30;1.90;;;;;;;12.31;89.34;100021.25;8290790;28;20076;-59
2023/04/11 00:46:48;;;;;;;10.90;2.15;;;;;;;12.31;89.50;100023.13;8291387;28;20512;-59
2023/04/11 00:50:49;;;;;;;13.13;1.85;;;;;;;12.33;88.57;100012.97;8292702;28;20065;-59
2023/04/11 00:54:50;;;;;;;10.48;1.58;;;;;;;12.29;88.35;99998.88;8293129;28;20115;-59
2023/04/11 00:58:50;;;;;;;11.68;2.00;;;;;;;12.26;88.46;100001.09;8293372;28;20034;-60
2023/04/11 01:02:51;;;;;;;11.98;2.38;;;;;;;12.18;88.71;99992.91;8292172;28;20042;-59
2023/04/11 01:06:57;;;;;;;12.73;2.05;;;;;;;12.13;88.91;99996.13;8291684;28;20463;-60
2023/04/11 01:10:59;;;;;;;11.07;2.35;;;;;;;12.03;88.91;99973.72;8290900;28;20053;-59
2023/04/11 01:14:59;;;;;;;12.80;2.45;;;;;;;11.95;89.75;99986.41;8292065;28;20389;-59
2023/04/11 01:19:00;;;;;;;17.50;2.75;;;;;;;11.92;89.72;99984.84;8292235;28;20045;-59
2023/04/11 01:23:01;;;;;;;17.48;2.65;;;;;;;11.90;88.98;99995.84;8291392;28;20135;-59
2023/04/11 01:27:02;;;;;;;16.77;3.00;;;;;;;11.84;89.23;99995.66;8291363;28;20050;-59
2023/04/11 01:31:03;;;;;;;14.93;2.90;;;;;;;11.73;88.85;99998.63;8291794;28;20136;-58
2023/04/11 01:35:04;;;;;;;17.83;2.60;;;;;;;11.76;87.84;99998.31;8292046;28;20522;-59
2023/04/11 01:39:05;;;;;;;15.23;2.45;;;;;;;11.67;88.21;99989.28;8291748;28;20049;-59
2023/04/11 01:43:08;;;;;;;26.58;4.15;;;;;;;11.64;87.19;99984.22;8291104;28;20033;-59
2023/04/11 01:47:08;;;;;;;19.67;2.65;;;;;;;11.56;87.43;100000.34;8291649;28;20044;-59
2023/04/11 01:51:08;;;;;;;15.80;3.40;;;;;;;11.52;87.92;100011.66;8289994;28;20044;-59
2023/04/11 01:55:09;;;;;;;14.95;2.95;;;;;;;11.44;88.47;100015.16;8290719;28;20045;-59
2023/04/11 01:59:10;;;;;;;13.10;2.70;;;;;;;11.50;87.41;100011.00;8291005;28;20085;-60
2023/04/11 02:03:11;;;;;;;25.70;3.28;;;;;;;11.46;87.18;99986.09;8291268;28;20048;-60
2023/04/11 02:07:11;;;;;;;23.77;4.22;;;;;;;11.43;86.75;100013.47;8290789;28;20052;-60
2023/04/11 02:11:12;;;;;;;24.50;3.25;;;;;;;11.35;87.40;100016.09;8301934;28;20037;-61
2023/04/11 02:15:13;;;;;;;32.92;4.07;;;;;;;11.20;88.27;100022.25;8289990;28;20042;-60
2023/04/11 02:19:15;;;;;;;30.85;4.35;;;;;;;11.20;87.72;100012.25;8290225;28;20422;-60
2023/04/11 02:23:15;;;;;;;20.58;3.15;;;;;;;11.04;89.22;100017.53;8289592;28;20080;-55
2023/04/11 02:27:16;;;;;;;24.65;4.22;;;;;;;10.95;90.14;100023.88;8290110;28;20531;-60
2023/04/11 02:31:16;;;;;;;23.20;4.18;;;;;;;10.91;90.64;100022.50;8290760;28;20038;-56
2023/04/11 02:35:18;;;;;;;31.25;3.75;;;;;;;10.90;90.66;100020.81;8290940;28;20034;-55
2023/04/11 02:39:23;;;;;;;25.00;4.85;;;;;;;10.89;91.25;100029.91;8289943;28;20038;-55
2023/04/11 02:43:23;;;;;;;23.92;3.60;;;;;;;10.87;90.91;100036.47;8290501;28;20045;-55
2023/04/11 02:47:24;;;;;;;24.80;3.67;;;;;;;10.80;90.87;100047.06;8290675;28;20038;-55
2023/04/11 02:51:25;;;;;;;25.23;3.83;;;;;;;10.80;90.48;100041.66;8289708;28;20049;-55
2023/04/11 02:55:26;;;;;;;28.55;3.72;;;;;;;10.76;90.26;100044.81;8290238;28;20515;-55
2023/04/11 02:59:27;;;;;;;35.47;4.60;;;;;;;10.72;90.08;100055.09;8289116;28;20374;-55
2023/04/11 03:03:28;;;;;;;25.70;3.92;;;;;;;10.71;89.81;100048.00;8289687;28;20104;-57
2023/04/11 03:07:30;;;;;;;18.60;2.92;;;;;;;10.72;89.54;100055.09;8293275;28;20041;-58
2023/04/11 03:11:31;;;;;;;22.10;3.85;;;;;;;10.62;89.59;100053.47;8295408;28;20042;-56
2023/04/11 03:15:32;;;;;;;20.98;2.78;;;;;;;10.64;88.60;100046.06;8295746;28;20037;-56
2023/04/11 03:19:37;;;;;;;20.65;3.78;;;;;;;10.81;87.08;100048.78;8295140;28;20569;-56
2023/04/11 03:23:38;;;;;;;24.88;3.15;;;;;;;10.78;86.61;100048.22;8295150;28;20465;-56
2023/04/11 03:27:39;;;;;;;28.10;4.20;;;;;;;10.71;87.20;100048.00;8293959;28;20433;-56
2023/04/11 03:31:40;;;;;;;29.85;3.83;;;;;;;10.60;87.70;100045.50;8292288;28;20112;-56
2023/04/11 03:35:41;;;;;;;15.10;3.15;;;;;;;10.65;87.59;100054.03;8294538;28;20045;-56
2023/04/11 03:39:42;;;;;;;22.40;3.42;;;;;;;10.73;87.23;100062.19;8295289;28;20547;-56
2023/04/11 03:43:43;;;;;;;26.70;3.58;;;;;;;10.65;88.28;100062.13;8293067;28;20414;-56
2023/04/11 03:47:43;;;;;;;19.25;4.20;;;;;;;10.63;87.67;100068.66;8293602;28;20042;-56
2023/04/11 03:51:46;;;;;;;21.17;3.80;;;;;;;10.58;87.85;100077.22;8293274;28;20385;-56
2023/04/11 03:55:47;;;;;;;22.77;3.90;;;;;;;10.56;87.97;100091.91;8294717;28;20034;-56
2023/04/11 03:59:52;;;;;;;32.70;4.47;;;;;;;10.54;87.90;100086.66;8294774;28;20038;-56
2023/04/11 04:03:53;;;;;;;22.92;3.70;;;;;;;10.61;87.75;100095.03;8275130;28;20096;-56
2023/04/11 04:07:54;;;;;;;25.80;3.72;;;;;;;10.58;88.05;100096.16;8284298;28;20062;-55
2023/04/11 04:12:00;;;;;;;25.98;3.60;;;;;;;10.46;88.53;100097.34;8284276;28;20181;-55
2023/04/11 04:16:16;;;;;;;19.48;3.78;;;;;;;10.47;88.39;100090.97;8293323;28;20522;-55
2023/04/11 04:20:19;;;;;;;20.58;3.88;;;;;;;10.51;87.61;100099.59;8293677;28;20044;-56
2023/04/11 04:24:24;;;;;;;21.70;3.92;;;;;;;10.55;87.05;100096.44;8303673;28;20171;-55
2023/04/11 04:28:45;;;;;;;18.20;3.67;;;;;;;10.67;86.75;100092.53;8259788;28;20077;-55
2023/04/11 04:32:53;;;;;;;16.55;2.75;;;;;;;10.83;85.51;100095.41;8259385;28;20461;-55
2023/04/11 04:36:58;;;;;;;25.30;3.75;;;;;;;10.85;85.81;100106.94;8291163;28;20042;-55
2023/04/11 04:41:13;;;;;;;23.00;3.33;;;;;;;10.82;85.39;100118.06;8290550;28;20088;-55
2023/04/11 04:45:15;;;;;;;27.92;4.07;;;;;;;10.87;85.64;100123.88;8291868;28;20042;-55
2023/04/11 04:49:17;;;;;;;14.98;3.75;;;;;;;10.82;84.96;100120.78;8292436;28;20034;-55
2023/04/11 04:53:17;;;;;;;19.55;3.70;;;;;;;10.86;84.97;100132.16;8289577;28;20519;-55
2023/04/11 04:57:25;;;;;;;22.42;4.05;;;;;;;10.85;85.14;100125.88;8291746;28;20038;-55
2023/04/11 05:01:26;;;;;;;31.38;4.95;;;;;;;10.89;85.68;100132.66;8291826;28;20042;-55
2023/04/11 05:05:31;;;;;;;25.15;4.22;;;;;;;10.82;86.35;100137.00;8290700;28;20042;-55
2023/04/11 05:09:32;;;;;;;24.15;3.50;;;;;;;10.77;86.14;100131.19;8288518;28;20041;-55
2023/04/11 05:13:43;;;;;;;25.90;4.20;;;;;;;10.85;85.90;100142.09;8268810;28;20041;-55
2023/04/11 05:17:43;;;;;;;22.00;4.63;;;;;;;10.75;88.46;100152.13;8289133;28;20369;-55
2023/04/11 05:21:45;;;;;;;20.58;3.78;;;;;;;10.64;90.01;100152.31;8286250;28;20041;-55
2023/04/11 05:25:46;;;;;;;17.35;4.28;;;;;;;10.57;89.88;100145.81;8281851;28;20299;-55
2023/04/11 05:29:50;;;;;;;25.90;4.07;;;;;;;10.60;87.74;100156.31;8280812;28;20049;-55
2023/04/11 05:33:52;;;;;;;20.27;4.63;;;;;;;10.67;87.72;100168.25;8285509;28;20400;-55
2023/04/11 05:37:53;;;;;;;19.70;3.67;;;;;;;10.78;86.71;100170.75;8290707;28;20061;-55
2023/04/11 05:41:53;;;;;;;20.08;3.55;;;;;;;10.92;85.94;100186.47;8291650;28;20034;-55
2023/04/11 05:45:54;;;;;;;23.38;3.55;;;;;;;10.97;85.38;100173.34;8291793;28;20065;-55
2023/04/11 05:49:55;;;;;;;16.48;3.85;;;;;;;11.09;84.83;100182.94;8290743;28;20500;-56
2023/04/11 05:53:55;;;;;;;22.48;4.30;;;;;;;11.15;84.79;100193.16;8288651;28;20045;-55
2023/04/11 05:57:56;;;;;;;21.50;3.15;;;;;;;11.24;84.00;100216.59;8286395;28;20096;-56
2023/04/11 06:01:57;;;;;;;22.20;4.10;;;;;;;11.42;83.84;100211.22;8289334;28;20448;-56
2023/04/11 06:05:59;;;;;;;18.02;3.90;;;;;;;11.54;82.91;100213.56;8290397;28;20038;-56
2023/04/11 06:09:59;;;;;;;20.20;3.65;;;;;;;11.78;82.17;100218.38;8290360;28;20507;-56
2023/04/11 06:14:00;;;;;;;21.95;3.60;;;;;;;11.83;81.17;100229.56;8290871;28;20463;-56
2023/04/11 06:18:00;;;;;;;20.55;3.40;;;;;;;11.69;81.54;100224.72;8290364;28;20547;-56
2023/04/11 06:22:01;;;;;;;20.05;3.03;;;;;;;11.52;82.80;100237.22;8286733;28;20038;-55
2023/04/11 06:26:02;;;;;;;21.13;3.53;;;;;;;11.72;82.05;100238.78;8286328;28;20046;-55
2023/04/11 06:30:02;;;;;;;15.40;3.47;;;;;;;12.20;80.98;100240.22;8286766;28;20042;-55
2023/04/11 06:34:03;;;;;;;23.92;3.95;;;;;;;12.18;80.29;100242.22;8288122;28;20045;-56
2023/04/11 06:38:03;;;;;;;15.95;3.05;;;;;;;12.04;81.67;100256.38;8286011;28;20062;-55
2023/04/11 06:42:04;;;;;;;27.02;4.35;;;;;;;11.95;80.89;100254.59;8293559;28;20519;-56
2023/04/11 06:46:07;;;;;;;24.95;4.38;;;;;;;12.30;79.66;100262.66;8293721;28;20045;-56
2023/04/11 06:50:08;;;;;;;14.70;3.53;;;;;;;12.32;79.10;100249.81;8294150;28;20104;-55
2023/04/11 06:54:09;;;;;;;18.75;3.72;;;;;;;12.37;78.46;100263.72;8289093;28;20038;-55
2023/04/11 06:58:09;;;;;;;19.00;2.85;;;;;;;12.57;77.60;100265.25;8291577;28;20046;-59
2023/04/11 07:02:10;;;;;;;17.98;2.90;;;;;;;12.69;76.50;100269.38;8291644;28;20073;-59
2023/04/11 07:06:10;;;;;;;17.70;3.05;;;;;;;12.73;76.52;100259.91;8293031;28;20049;-60
2023/04/11 07:10:11;;;;;;;22.80;3.97;;;;;;;12.78;76.08;100282.00;8272166;28;20104;-60
2023/04/11 07:14:11;;;;;;;16.75;3.22;;;;;;;12.94;75.32;100285.66;8287435;28;20038;-59
2023/04/11 07:18:13;;;;;;;13.93;2.80;;;;;;;13.02;74.50;100282.16;8291379;28;20038;-59
2023/04/11 07:22:13;;;;;;;18.75;4.03;;;;;;;13.09;73.13;100285.94;8291427;28;20512;-60
2023/04/11 07:26:15;;;;;;;15.23;2.47;;;;;;;13.27;73.74;100290.22;8288845;28;20520;-59
2023/04/11 07:30:16;;;;;;;17.65;3.33;;;;;;;13.20;74.17;100296.47;8290203;28;20053;-59
2023/04/11 07:34:16;;;;;;;14.73;3.00;;;;;;;12.85;75.38;100302.88;8291740;28;20063;-60
2023/04/11 07:38:26;;;;;;;20.67;2.53;;;;;;;13.00;73.96;100301.31;8288297;28;20030;-59
2023/04/11 07:42:26;;;;;;;16.15;2.17;;;;;;;13.55;73.96;100302.56;8291569;28;20069;-58
2023/04/11 07:46:27;;;;;;;27.05;2.88;;;;;;;13.75;71.23;100314.00;8285617;28;20041;-59
2023/04/11 07:50:27;;;;;;;14.00;2.20;;;;;;;13.65;70.73;100308.72;8282190;28;20042;-59
2023/04/11 07:54:28;;;;;;;11.52;2.03;;;;;;;13.44;68.98;100302.00;8256831;28;20097;-59
2023/04/11 07:58:29;;;;;;;14.93;2.25;;;;;;;13.14;70.52;100310.69;8285878;28;21451;-56
2023/04/11 08:02:31;;;;;;;13.48;2.72;;;;;;;13.49;71.00;100318.69;8286510;28;20112;-55
2023/04/11 08:06:32;;;;;;;10.88;2.25;;;;;;;14.01;69.34;100324.75;8290601;28;20041;-55
2023/04/11 08:10:33;;;;;;;15.48;2.33;;;;;;;13.41;68.65;100333.06;8291264;28;20168;-55
2023/04/11 08:14:34;;;;;;;14.20;2.33;;;;;;;13.57;70.04;100338.56;8283716;28;20045;-55
2023/04/11 08:18:36;;;;;;;10.23;2.03;;;;;;;14.17;69.58;100330.22;8286351;28;20058;-55
2023/04/11 08:22:38;;;;;;;12.35;2.30;;;;;;;13.62;65.99;100329.91;8280181;28;20041;-55
2023/04/11 08:26:38;;;;;;;13.35;2.20;;;;;;;13.63;67.28;100345.19;8281865;28;20527;-58
2023/04/11 08:30:39;;;;;;;7.80;1.80;;;;;;;13.63;66.12;100343.34;8277494;28;20497;-58
2023/04/11 08:34:39;;;;;;;16.00;1.90;;;;;;;13.91;64.84;100345.81;8288141;28;20033;-59
2023/04/11 08:38:40;;;;;;;13.73;2.22;;;;;;;14.42;65.04;100345.59;8262330;28;20035;-58
2023/04/11 08:42:41;;;;;;;12.50;2.40;;;;;;;14.58;65.08;100351.03;8255347;28;20038;-58
2023/04/11 08:46:42;;;;;;;9.82;1.60;;;;;;;14.33;64.65;100342.00;8267616;28;20026;-58
2023/04/11 08:50:43;;;;;;;10.27;1.73;;;;;;;14.36;64.10;100352.53;8283915;28;20137;-59
2023/04/11 08:54:45;;;;;;;6.65;1.40;;;;;;;14.83;63.43;100339.97;8272666;28;20092;-58
2023/04/11 08:58:45;;;;;;;11.88;1.67;;;;;;;14.92;60.95;100347.09;8280173;28;20034;-58
2023/04/11 09:03:04;;;;;;;7.72;1.25;;;;;;;14.82;62.85;100351.84;8285385;28;20070;-58
2023/04/11 09:07:04;;;;;;;8.20;1.50;;;;;;;14.75;61.73;100348.13;8286863;28;20475;-58
2023/04/11 09:11:05;;;;;;;11.18;1.83;;;;;;;14.23;63.27;100363.06;8287471;28;20182;-58
2023/04/11 09:15:17;;;;;;;9.55;1.73;;;;;;;14.58;63.41;100360.03;8286432;28;20188;-58
2023/04/11 09:19:26;;;;;;;12.48;2.20;;;;;;;14.50;62.22;100357.31;8286881;28;20065;-58
2023/04/11 09:23:27;;;;;;;9.38;2.22;;;;;;;14.93;62.88;100354.22;8283837;28;20300;-58
2023/04/11 09:27:28;;;;;;;9.38;1.90;;;;;;;15.16;62.05;100352.47;8287053;28;20037;-57
2023/04/11 09:31:44;;;;;;;7.93;1.50;;;;;;;15.37;59.16;100352.78;8286091;28;20068;-58
2023/04/11 09:35:46;;;;;;;7.57;2.05;;;;;;;16.26;60.33;100352.34;8285811;28;20050;-58
2023/04/11 09:39:58;;;;;;;10.43;1.73;;;;;;;16.57;55.74;100356.75;8286553;28;20100;-58
2023/04/11 09:44:00;;;;;;;10.65;2.08;;;;;;;17.36;54.77;100358.88;8285240;28;20049;-58
2023/04/11 09:48:00;;;;;;;8.73;1.55;;;;;;;17.86;53.51;100361.69;8286328;28;20155;-58
2023/04/11 09:52:01;;;;;;;11.25;1.90;;;;;;;18.57;52.82;100364.44;8285095;28;20046;-58
2023/04/11 09:56:03;;;;;;;7.63;2.05;;;;;;;17.21;54.15;100360.75;8286055;28;20523;-58
2023/04/11 10:00:13;;;;;;;6.13;2.25;;;;;;;18.14;53.32;100381.81;8286122;28;20112;-58
2023/04/11 10:04:13;;;;;;;9.45;2.15;;;;;;;19.71;50.90;100389.63;8286504;28;20421;-58
2023/04/11 10:08:29;;;;;;;10.35;1.98;;;;;;;20.35;48.01;100376.41;8286664;28;20060;-58
2023/04/11 10:12:31;;;;;;;9.98;1.73;;;;;;;19.70;49.08;100376.13;8283693;28;20104;-55
2023/04/11 10:16:32;;;;;;;10.70;2.05;;;;;;;18.49;50.28;100381.00;8291312;28;20496;-55
2023/04/11 10:25:23;;;;;;;10.27;1.95;;;;;;;18.68;49.98;100385.84;8400679;27;20466;-54
2023/04/11 10:29:44;;;;;;;4.72;1.60;;;;;;;19.40;48.77;100381.81;8396229;27;20029;-54
2023/04/11 10:34:10;;;;;;;5.80;1.50;;;;;;;20.43;46.79;100379.81;8395932;27;20089;-54
2023/04/11 10:38:47;;;;;;;6.38;1.83;;;;;;;20.61;45.43;100370.97;8396428;27;20044;-54
2023/04/11 10:42:48;;;;;;;6.47;1.60;;;;;;;18.37;48.82;100378.97;8395953;27;20040;-54
2023/04/11 10:46:50;;;;;;;5.38;1.05;;;;;;;18.08;48.38;100381.78;8396596;27;20053;-54
2023/04/11 10:50:51;;;;;;;7.13;1.20;;;;;;;18.52;49.50;100383.38;8392647;27;20043;-54
2023/04/11 10:54:52;;;;;;;5.55;1.45;;;;;;;20.94;46.26;100377.34;8392204;27;20033;-54
2023/04/11 10:58:53;;;;;;;8.60;1.48;;;;;;;20.98;44.89;100374.00;8398277;27;20044;-55
2023/04/11 11:02:53;;;;;;;10.85;1.50;;;;;;;21.82;43.66;100365.88;8412402;28;20123;-55
2023/04/11 11:06:54;;;;;;;8.18;1.42;;;;;;;18.37;47.80;100396.25;8374968;28;20122;-55
2023/04/11 11:11:05;;;;;;;6.05;1.13;;;;;;;20.49;46.44;100383.66;8380692;27;20553;-55
2023/04/11 11:15:11;;;;;;;7.28;1.52;;;;;;;20.96;43.79;100386.28;8370546;27;20097;-56
2023/04/11 11:19:12;;;;;;;7.30;1.15;;;;;;;20.98;43.45;100382.25;8370280;27;20337;-55
2023/04/11 11:23:13;;;;;;;6.18;1.25;;;;;;;19.23;46.05;100391.38;8372803;27;20047;-56
2023/04/11 11:27:22;;;;;;;2.75;1.10;;;;;;;18.83;48.13;100392.09;8401624;28;20494;-55
2023/04/11 11:31:33;;;;;;;7.38;1.10;;;;;;;19.35;46.31;100389.81;8412346;28;20127;-59
2023/04/11 11:35:34;;;;;;;8.57;1.90;;;;;;;20.35;46.12;100393.75;8423497;28;20057;-59
2023/04/11 11:39:34;;;;;;;5.65;1.75;;;;;;;22.89;42.54;100382.28;8421538;28;20383;-59
2023/04/11 11:43:36;;;;;;;10.77;1.30;;;;;;;22.85;41.36;100386.56;8418167;28;20192;-59
2023/04/11 11:47:42;;;;;;;10.60;1.92;;;;;;;21.72;41.28;100388.31;8355856;28;20118;-59
2023/04/11 11:51:46;;;;;;;8.45;1.05;;;;;;;22.30;42.32;100381.78;8357444;28;20068;-59
2023/04/11 11:55:47;;;;;;;14.45;1.85;;;;;;;20.36;43.45;100389.94;8364360;28;20056;-60
2023/04/11 11:59:52;;;;;;;8.57;1.48;;;;;;;19.12;44.97;100393.81;8346832;28;20041;-58
2023/04/11 12:03:53;;;;;;;4.28;1.33;;;;;;;19.32;46.94;100392.97;8369348;28;20044;-58
2023/04/11 12:07:54;;;;;;;5.68;1.30;;;;;;;20.12;45.00;100375.88;8353668;28;20040;-60
2023/04/11 12:11:55;;;;;;;10.05;1.38;;;;;;;18.43;46.51;100381.78;8420142;28;20514;-61
2023/04/11 12:15:57;;;;;;;4.03;1.38;;;;;;;16.84;50.44;100390.81;8418098;28;20471;-59
2023/04/11 12:19:57;;;;;;;6.25;1.80;;;;;;;16.37;51.92;100392.84;8368811;28;20029;-58
2023/04/11 12:23:57;;;;;;;8.40;1.42;;;;;;;16.84;51.10;100390.81;8364687;28;20274;-59
2023/04/11 12:27:58;;;;;;;16.30;3.00;;;;;;;16.93;50.77;100378.78;8360562;28;20048;-55
2023/04/11 12:31:58;;;;;;;11.35;2.53;;;;;;;17.06;50.97;100392.66;8371860;28;20529;-55
2023/04/11 12:35:59;;;;;;;34.20;6.05;;;;;;;17.06;51.04;100384.47;8378264;28;20063;-55
2023/04/11 12:40:00;;;;;;;17.85;3.08;;;;;;;17.01;51.30;100375.97;8388629;28;20053;-55
2023/04/11 12:44:01;;;;;;;16.25;2.42;;;;;;;17.33;51.69;100387.41;8387727;28;20041;-55
2023/04/11 12:48:01;;;;;;;9.07;2.42;;;;;;;17.20;51.57;100383.66;8388241;28;20048;-56
2023/04/11 12:52:02;;;;;;;13.93;2.70;;;;;;;17.07;51.78;100375.22;8382715;28;20056;-55
2023/04/11 12:56:02;;;;;;;15.38;2.67;;;;;;;17.23;50.76;100364.16;8330469;28;20682;-55
2023/04/11 13:00:05;;;;;;;7.82;1.33;;;;;;;17.45;51.28;100382.38;8359780;28;20040;-55
2023/04/11 13:04:06;;;;;;;11.52;1.70;;;;;;;17.66;51.63;100381.63;8374147;28;20041;-55
2023/04/11 13:08:06;;;;;;;7.80;1.40;;;;;;;18.03;48.77;100376.88;8366801;28;20055;-55
2023/04/11 13:12:07;;;;;;;8.65;1.38;;;;;;;17.33;49.66;100386.59;8369726;28;20063;-56
2023/04/11 13:16:08;;;;;;;4.68;1.27;;;;;;;16.56;49.49;100395.97;8363076;28;20438;-55
2023/04/11 13:20:09;;;;;;;7.38;1.02;;;;;;;15.76;54.19;100414.66;8413157;28;20108;-53
2023/04/11 13:24:10;;;;;;;2.55;0.55;;;;;;;15.22;57.42;100419.84;8362497;28;20041;-55
2023/04/11 13:28:11;;;;;;;7.25;0.95;;;;;;;16.03;55.07;100430.53;8372661;28;20051;-55
2023/04/11 13:32:11;;;;;;;3.15;0.75;;;;;;;16.04;53.17;100424.91;8345397;28;20074;-55
2023/04/11 13:36:12;;;;;;;4.28;1.10;;;;;;;15.86;53.80;100420.75;8351274;28;20043;-55
2023/04/11 13:40:12;;;;;;;8.07;1.27;;;;;;;16.15;54.78;100415.47;8353321;28;20036;-55
2023/04/11 13:44:13;;;;;;;5.97;1.10;;;;;;;15.96;53.28;100416.78;8341695;28;20130;-55
2023/04/11 13:48:13;;;;;;;6.13;1.40;;;;;;;15.91;53.59;100410.13;8346513;28;20052;-56
2023/04/11 13:52:13;;;;;;;3.45;1.38;;;;;;;15.99;54.00;100393.75;8356265;28;20041;-55
2023/04/11 13:56:14;;;;;;;7.65;1.45;;;;;;;16.09;53.02;100386.19;8365707;28;20055;-55
2023/04/11 14:00:15;;;;;;;3.72;1.10;;;;;;;16.24;53.90;100381.66;8386310;28;20028;-56
2023/04/11 14:04:16;;;;;;;4.75;0.90;;;;;;;15.76;53.08;100376.50;8386579;28;20600;-56
2023/04/11 14:08:16;;;;;;;4.35;1.17;;;;;;;15.92;53.54;100379.16;8382783;28;20468;-56
2023/04/11 14:12:17;;;;;;;6.00;1.58;;;;;;;16.13;54.48;100371.19;8334627;28;20044;-56
2023/04/11 14:16:17;;;;;;;7.90;1.80;;;;;;;16.07;54.88;100369.19;8335610;28;20098;-56
2023/04/11 14:20:18;;;;;;;4.93;1.27;;;;;;;15.89;55.72;100365.88;8327891;28;22903;-54
2023/04/11 14:24:21;;;;;;;6.35;1.70;;;;;;;15.97;56.06;100369.38;8394399;28;20123;-56
2023/04/11 14:28:21;;;;;;;5.90;1.77;;;;;;;16.05;56.04;100365.78;8368417;28;20090;-56
2023/04/11 14:32:22;;;;;;;10.15;2.15;;;;;;;16.24;54.82;100359.84;8364421;28;20041;-56
2023/04/11 14:36:22;;;;;;;10.40;2.03;;;;;;;16.04;55.18;100364.91;8367905;28;20056;-56
2023/04/11 14:40:23;;;;;;;5.85;1.55;;;;;;;15.94;55.56;100352.53;8367533;28;20037;-56
2023/04/11 14:44:23;;;;;;;6.72;1.45;;;;;;;16.02;54.90;100347.03;8367643;28;20041;-56
2023/04/11 14:48:25;;;;;;;7.10;1.23;;;;;;;16.03;54.46;100351.44;8367842;28;20033;-60
2023/04/11 14:52:25;;;;;;;7.00;1.23;;;;;;;16.18;55.96;100352.38;8367017;28;20124;-60
2023/04/11 14:56:26;;;;;;;8.80;1.52;;;;;;;16.07;55.53;100350.09;8351898;28;20042;-60
2023/04/11 15:00:27;;;;;;;6.75;1.77;;;;;;;16.14;56.19;100349.19;8340649;28;20066;-58
2023/04/11 15:04:27;;;;;;;7.88;1.42;;;;;;;16.03;54.73;100340.53;8383080;28;20037;-58
2023/04/11 15:08:27;;;;;;;6.10;1.60;;;;;;;15.83;55.31;100340.19;8372179;28;20521;-59
2023/04/11 15:12:28;;;;;;;9.10;1.42;;;;;;;15.65;55.23;100332.22;8354380;28;20406;-59
2023/04/11 15:16:28;;;;;;;6.43;1.80;;;;;;;15.13;57.45;100335.66;8353398;28;20036;-59
2023/04/11 15:20:29;;;;;;;6.93;1.80;;;;;;;15.13;57.54;100341.09;8354199;28;20112;-56
2023/04/11 15:24:29;;;;;;;9.90;1.55;;;;;;;14.93;57.83;100335.16;8353563;28;20051;-56
2023/04/11 15:28:32;;;;;;;9.27;1.92;;;;;;;14.75;59.11;100320.91;8380786;28;20106;-59
2023/04/11 15:32:32;;;;;;;7.43;2.05;;;;;;;14.52;59.67;100325.34;8371678;28;20041;-59
2023/04/11 15:36:37;;;;;;;8.93;1.70;;;;;;;14.42;60.65;100313.78;8374981;28;20037;-59
2023/04/11 15:40:38;;;;;;;12.93;2.10;;;;;;;14.25;61.73;100312.09;8387140;28;20033;-56
2023/04/11 15:44:38;;;;;;;12.85;2.13;;;;;;;14.22;62.38;100312.41;8353280;28;20587;-56
2023/04/11 15:48:38;;;;;;;7.90;1.48;;;;;;;14.21;62.05;100321.56;8372115;28;20040;-56
2023/04/11 15:52:39;;;;;;;11.32;1.73;;;;;;;14.28;61.62;100319.91;8381695;28;20075;-56
2023/04/11 15:56:39;;;;;;;11.50;2.08;;;;;;;14.51;62.86;100318.19;8358715;28;20095;-55
2023/04/11 16:00:42;;;;;;;10.30;2.03;;;;;;;14.53;62.15;100318.03;8357629;28;20060;-55
2023/04/11 16:04:43;;;;;;;10.43;1.75;;;;;;;14.74;62.63;100312.91;8354499;28;20037;-55
2023/04/11 16:08:44;;;;;;;13.90;2.58;;;;;;;14.75;61.28;100304.56;8360872;28;20155;-59
2023/04/11 16:12:44;;;;;;;8.13;1.35;;;;;;;14.80;61.09;100296.75;8369477;28;20387;-59
2023/04/11 16:16:45;;;;;;;11.13;1.83;;;;;;;14.88;63.51;100299.44;8349074;28;20477;-59
2023/04/11 16:20:45;;;;;;;9.85;1.35;;;;;;;14.98;60.67;100281.03;8343593;28;20052;-59
2023/04/11 16:24:46;;;;;;;11.07;1.40;;;;;;;15.13;60.76;100284.72;8354081;28;20533;-59
2023/04/11 16:28:47;;;;;;;13.55;2.15;;;;;;;14.95;60.21;100275.94;8353103;28;20128;-59
2023/04/11 16:32:47;;;;;;;16.23;2.13;;;;;;;14.67;60.38;100263.75;8360207;28;20034;-59
2023/04/11 16:36:48;;;;;;;9.93;1.63;;;;;;;14.73;62.05;100268.50;8346859;28;20033;-59
2023/04/11 16:40:48;;;;;;;11.10;2.15;;;;;;;14.71;61.59;100265.13;8352313;28;20614;-59
2023/04/11 16:44:49;;;;;;;7.85;1.70;;;;;;;14.59;63.58;100271.09;8346642;28;20451;-59
2023/04/11 16:48:49;;;;;;;9.65;1.95;;;;;;;14.54;61.31;100266.16;8365784;28;20380;-59
2023/04/11 16:52:50;;;;;;;8.18;1.30;;;;;;;14.52;62.05;100264.66;8385652;28;20182;-60
2023/04/11 16:56:50;;;;;;;8.48;1.50;;;;;;;14.49;61.92;100268.53;8351876;28;20162;-59
2023/04/11 17:00:51;;;;;;;7.90;2.20;;;;;;;14.40;65.43;100272.31;8347396;28;20433;-59
2023/04/11 17:04:52;;;;;;;18.33;1.98;;;;;;;14.42;63.43;100270.25;8352804;28;20468;-59
2023/04/11 17:08:53;;;;;;;15.85;2.03;;;;;;;14.47;62.17;100262.44;8352051;28;20123;-60
2023/04/11 17:12:53;;;;;;;28.85;2.63;;;;;;;14.33;63.16;100265.84;8368506;28;20045;-60
2023/04/11 17:16:54;;;;;;;7.72;1.98;;;;;;;14.32;63.12;100258.72;8371308;28;20358;-55
2023/04/11 17:20:54;;;;;;;10.93;2.47;;;;;;;14.27;64.04;100263.81;8369353;28;20407;-55
2023/04/11 17:24:55;;;;;;;9.32;1.70;;;;;;;14.25;64.74;100251.41;8364839;28;20040;-55
2023/04/11 17:28:55;;;;;;;8.07;1.60;;;;;;;14.18;64.08;100250.38;8369902;28;20053;-55
2023/04/11 17:32:56;;;;;;;9.13;2.03;;;;;;;13.96;65.68;100246.44;8368085;28;20120;-55
2023/04/11 17:36:57;;;;;;;17.98;1.85;;;;;;;13.97;65.61;100248.16;8366471;28;20702;-58
2023/04/11 17:40:57;;;;;;;9.27;1.77;;;;;;;14.08;63.85;100228.78;8350887;28;20332;-55
2023/04/11 17:44:58;;;;;;;6.07;1.52;;;;;;;14.23;61.15;100216.22;8348768;28;20043;-56
2023/04/11 17:48:58;;;;;;;12.30;1.95;;;;;;;14.38;61.99;100228.13;8348270;28;20033;-56
2023/04/11 17:52:59;;;;;;;10.68;2.15;;;;;;;14.36;61.59;100211.09;8351257;28;20043;-59
2023/04/11 17:57:00;;;;;;;11.43;1.92;;;;;;;14.26;61.94;100206.88;8346340;28;20079;-59
2023/04/11 18:01:02;;;;;;;10.77;1.73;;;;;;;14.18;63.30;100210.41;8351630;28;20447;-59
2023/04/11 18:05:03;;;;;;;11.18;1.70;;;;;;;13.93;64.61;100214.16;8369763;28;20041;-59
2023/04/11 18:09:04;;;;;;;9.15;2.28;;;;;;;13.87;64.17;100217.56;8354357;28;20078;-59
2023/04/11 18:13:05;;;;;;;10.68;1.92;;;;;;;13.71;64.79;100209.38;8371016;28;20043;-59
2023/04/11 18:17:05;;;;;;;11.90;1.90;;;;;;;13.56;66.32;100211.06;8368779;28;20711;-59
2023/04/11 18:21:06;;;;;;;9.18;1.98;;;;;;;13.53;65.70;100205.97;8368790;28;20037;-59
2023/04/11 18:25:07;;;;;;;12.80;1.77;;;;;;;13.52;65.76;100209.72;8381870;28;20048;-59
2023/04/11 18:29:08;;;;;;;5.00;1.60;;;;;;;13.57;65.27;100207.31;8368347;28;20037;-55
2023/04/11 18:33:08;;;;;;;5.55;1.55;;;;;;;13.46;66.25;100199.50;8367308;28;20163;-55
2023/04/11 18:37:09;;;;;;;12.55;1.73;;;;;;;13.32;66.57;100202.84;8367822;28;20028;-55
2023/04/11 18:41:09;;;;;;;8.98;1.60;;;;;;;13.19;66.95;100210.63;8369268;28;20086;-55
2023/04/11 18:45:10;;;;;;;14.07;1.45;;;;;;;13.15;66.86;100193.00;8366305;28;20056;-55